Time;durP1;ratioP1;P1;durP2;ratioP2;P2;SDS_P1;SDS_P2;PMS_P1;PMS_P2;Temp;Humidity;BMP_temperature;BMP_pressure;BME280_temperature;BME280_humidity;BME280_pressure;Samples;Min_cycle;Max_cycle;Signal;HPM_P1;HPM_P2
2022/07/16 00:03:11;;;;;;;4.72;2.40;;;14.50;99.90;;;;;;5070517;28;20031;-61
2022/07/16 00:05:36;;;;;;;4.45;2.35;;;14.50;99.90;;;;;;5069744;28;20024;-62
2022/07/16 00:08:02;;;;;;;4.47;2.33;;;14.60;99.90;;;;;;5069513;28;20048;-63
2022/07/16 00:10:28;;;;;;;7.53;2.45;;;14.60;99.90;;;;;;5069908;28;20625;-62
2022/07/16 00:12:54;;;;;;;8.25;2.28;;;14.60;99.90;;;;;;5069499;28;20463;-61
2022/07/16 00:15:19;;;;;;;9.60;2.33;;;14.50;99.90;;;;;;5069922;28;20045;-62
2022/07/16 00:17:46;;;;;;;10.55;2.75;;;14.50;99.90;;;;;;5069954;28;20074;-62
2022/07/16 00:20:11;;;;;;;5.30;2.42;;;14.50;99.90;;;;;;5069537;28;20037;-58
2022/07/16 00:22:37;;;;;;;3.85;2.00;;;14.50;99.90;;;;;;5069971;28;20024;-59
2022/07/16 00:25:03;;;;;;;7.10;2.88;;;14.50;99.90;;;;;;5069873;28;20032;-59
2022/07/16 00:27:29;;;;;;;6.28;2.03;;;14.50;99.90;;;;;;5069142;28;20256;-59
2022/07/16 00:29:54;;;;;;;5.53;2.60;;;14.50;99.90;;;;;;5070244;28;20024;-62
2022/07/16 00:32:20;;;;;;;4.68;2.17;;;14.50;99.90;;;;;;5068739;28;20494;-62
2022/07/16 00:34:45;;;;;;;10.88;2.30;;;14.40;99.90;;;;;;5071285;28;20028;-61
2022/07/16 00:37:11;;;;;;;8.10;2.03;;;14.40;99.90;;;;;;5073483;28;20035;-62
2022/07/16 00:39:36;;;;;;;5.18;2.30;;;14.30;99.90;;;;;;5074139;28;20445;-62
2022/07/16 00:42:02;;;;;;;5.40;2.10;;;14.30;99.90;;;;;;5073393;28;20024;-61
2022/07/16 00:44:28;;;;;;;6.15;2.33;;;14.30;99.90;;;;;;5073597;28;20024;-62
2022/07/16 00:46:53;;;;;;;15.32;2.58;;;14.30;99.90;;;;;;5073350;28;20036;-62
2022/07/16 00:49:19;;;;;;;7.80;1.90;;;14.40;99.90;;;;;;5073278;28;20031;-62
2022/07/16 00:51:50;;;;;;;3.75;2.25;;;14.40;99.90;;;;;;5073413;28;20033;-62
2022/07/16 00:54:17;;;;;;;4.95;2.67;;;14.30;99.90;;;;;;5073376;28;20021;-62
2022/07/16 00:56:42;;;;;;;7.95;2.33;;;14.20;99.90;;;;;;5073449;28;20078;-62
2022/07/16 00:59:08;;;;;;;5.47;2.38;;;14.10;99.90;;;;;;5072883;28;20024;-61
2022/07/16 01:01:35;;;;;;;4.78;2.53;;;14.10;99.90;;;;;;5088600;28;20111;-61
2022/07/16 01:04:04;;;;;;;5.80;2.58;;;14.10;99.90;;;;;;5073382;28;20474;-62
2022/07/16 01:06:31;;;;;;;6.65;2.55;;;14.00;99.90;;;;;;5073288;28;20111;-61
2022/07/16 01:08:57;;;;;;;16.52;3.20;;;13.90;99.90;;;;;;5072912;28;20035;-62
2022/07/16 01:11:23;;;;;;;4.45;2.33;;;13.90;99.90;;;;;;5072367;28;20031;-62
2022/07/16 01:13:50;;;;;;;5.82;2.35;;;13.90;99.90;;;;;;5073522;28;20036;-61
2022/07/16 01:16:16;;;;;;;9.93;2.70;;;13.90;99.90;;;;;;5073041;28;20024;-59
2022/07/16 01:18:43;;;;;;;9.95;2.85;;;13.90;99.90;;;;;;5073010;28;20032;-62
2022/07/16 01:21:09;;;;;;;5.18;2.50;;;13.90;99.90;;;;;;5072884;28;20043;-62
2022/07/16 01:23:34;;;;;;;7.20;3.25;;;13.90;99.90;;;;;;5072312;28;20021;-62
2022/07/16 01:26:01;;;;;;;5.30;3.00;;;13.90;99.90;;;;;;5072051;28;20027;-62
2022/07/16 01:28:26;;;;;;;5.93;3.40;;;13.90;99.90;;;;;;5072778;28;20073;-61
2022/07/16 01:30:52;;;;;;;12.93;2.70;;;13.90;99.90;;;;;;5067643;28;20490;-62
2022/07/16 01:33:23;;;;;;;6.47;3.10;;;13.80;99.90;;;;;;5053023;28;20171;-62
2022/07/16 01:35:50;;;;;;;14.43;2.97;;;13.80;99.90;;;;;;5055905;28;20498;-63
2022/07/16 01:38:16;;;;;;;4.38;2.70;;;13.70;99.90;;;;;;5072503;28;20058;-60
2022/07/16 01:40:42;;;;;;;7.03;3.10;;;13.60;99.90;;;;;;5072547;28;20418;-62
2022/07/16 01:43:15;;;;;;;13.73;3.03;;;13.50;99.90;;;;;;5071860;28;20052;-60
2022/07/16 01:45:41;;;;;;;7.88;3.08;;;13.40;99.90;;;;;;5071979;28;20028;-60
2022/07/16 01:48:07;;;;;;;12.77;4.00;;;13.40;99.90;;;;;;5072188;28;20548;-61
2022/07/16 01:50:32;;;;;;;6.55;2.72;;;13.50;99.90;;;;;;5071613;28;20509;-61
2022/07/16 01:52:58;;;;;;;7.75;2.60;;;13.50;99.90;;;;;;5072313;28;20039;-62
2022/07/16 01:55:23;;;;;;;3.13;2.25;;;13.50;99.90;;;;;;5072800;28;20034;-60
2022/07/16 01:57:49;;;;;;;8.68;2.92;;;13.40;99.90;;;;;;5072825;28;20036;-61
2022/07/16 02:00:14;;;;;;;6.30;3.50;;;13.40;99.90;;;;;;5072216;28;20032;-62
2022/07/16 02:02:40;;;;;;;8.07;3.38;;;13.40;99.90;;;;;;5072352;28;20040;-62
2022/07/16 02:05:06;;;;;;;5.30;3.30;;;13.30;99.90;;;;;;5072461;28;20570;-62
2022/07/16 02:07:31;;;;;;;5.47;2.97;;;13.20;99.90;;;;;;5072026;28;20047;-61
2022/07/16 02:09:57;;;;;;;6.88;3.17;;;13.00;99.90;;;;;;5072302;28;20090;-62
2022/07/16 02:12:22;;;;;;;6.60;2.95;;;13.00;99.90;;;;;;5072177;28;20487;-62
2022/07/16 02:14:48;;;;;;;11.90;3.35;;;13.00;99.90;;;;;;5072247;28;20039;-62
2022/07/16 02:17:13;;;;;;;4.22;2.97;;;13.10;99.90;;;;;;5072387;28;20032;-62
2022/07/16 02:19:39;;;;;;;9.02;3.45;;;13.10;99.90;;;;;;5072065;28;20069;-62
2022/07/16 02:22:06;;;;;;;11.35;3.10;;;13.10;99.90;;;;;;5072348;28;20024;-62
2022/07/16 02:24:32;;;;;;;12.57;3.15;;;13.10;99.90;;;;;;5072537;28;20029;-62
2022/07/16 02:26:57;;;;;;;4.93;3.28;;;13.00;99.90;;;;;;5072269;28;20028;-62
2022/07/16 02:29:23;;;;;;;10.68;3.50;;;13.00;99.90;;;;;;5071564;28;20021;-61
2022/07/16 02:31:49;;;;;;;11.40;3.47;;;12.90;99.90;;;;;;5072242;28;20398;-61
2022/07/16 02:34:14;;;;;;;8.07;3.50;;;12.90;99.90;;;;;;5071980;28;20031;-62
2022/07/16 02:36:40;;;;;;;6.90;3.40;;;12.90;99.90;;;;;;5071609;28;20078;-61
2022/07/16 02:39:05;;;;;;;8.02;3.95;;;12.80;99.90;;;;;;5072389;28;20168;-60
2022/07/16 02:41:31;;;;;;;11.00;4.03;;;12.70;99.90;;;;;;5070980;28;20020;-61
2022/07/16 02:43:57;;;;;;;5.68;3.75;;;12.70;99.90;;;;;;5071090;28;20027;-62
2022/07/16 02:46:22;;;;;;;5.45;2.95;;;12.70;99.90;;;;;;5072179;28;20025;-60
2022/07/16 02:48:48;;;;;;;15.93;3.50;;;12.80;99.90;;;;;;5071051;28;20040;-62
2022/07/16 02:51:13;;;;;;;5.75;3.45;;;12.80;99.90;;;;;;5071634;28;20097;-62
2022/07/16 02:53:39;;;;;;;7.68;3.08;;;12.80;99.90;;;;;;5071249;28;20032;-61
2022/07/16 02:56:05;;;;;;;12.43;3.53;;;12.90;99.90;;;;;;5071586;28;20056;-61
2022/07/16 02:58:30;;;;;;;5.43;3.13;;;12.80;99.90;;;;;;5070340;28;20074;-61
2022/07/16 03:00:56;;;;;;;8.63;3.50;;;12.90;99.90;;;;;;5071393;28;20137;-61
2022/07/16 03:03:21;;;;;;;15.15;3.83;;;12.90;99.90;;;;;;5071174;28;20033;-61
2022/07/16 03:05:47;;;;;;;8.10;2.95;;;12.90;99.90;;;;;;5071454;28;20498;-61
2022/07/16 03:08:13;;;;;;;8.35;3.53;;;12.90;99.90;;;;;;5071101;28;20103;-61
2022/07/16 03:10:38;;;;;;;5.90;3.10;;;12.90;99.90;;;;;;5071679;28;20029;-61
2022/07/16 03:13:04;;;;;;;7.50;3.10;;;12.80;99.90;;;;;;5070925;28;20029;-62
2022/07/16 03:15:29;;;;;;;6.55;3.00;;;12.80;99.90;;;;;;5071122;28;20028;-62
2022/07/16 03:17:55;;;;;;;5.28;2.92;;;12.70;99.90;;;;;;5070721;28;20024;-62
2022/07/16 03:20:21;;;;;;;5.43;3.35;;;12.70;99.90;;;;;;5071367;28;20650;-61
2022/07/16 03:22:47;;;;;;;4.57;3.22;;;12.70;99.90;;;;;;5070694;28;20035;-62
2022/07/16 03:25:14;;;;;;;11.88;3.20;;;12.70;99.90;;;;;;5070763;28;20024;-62
2022/07/16 03:27:40;;;;;;;6.97;3.47;;;12.70;99.90;;;;;;5067719;28;20031;-62
2022/07/16 03:30:06;;;;;;;5.90;3.40;;;12.90;99.90;;;;;;5050923;28;20479;-62
2022/07/16 03:32:31;;;;;;;11.02;3.30;;;13.00;99.90;;;;;;5050618;28;20029;-61
2022/07/16 03:34:57;;;;;;;7.13;3.63;;;13.00;99.90;;;;;;5050780;28;20391;-62
2022/07/16 03:37:22;;;;;;;9.73;3.90;;;13.10;99.90;;;;;;5067002;28;20386;-61
2022/07/16 03:39:48;;;;;;;9.55;3.47;;;13.20;99.90;;;;;;5070856;28;20039;-62
2022/07/16 03:42:13;;;;;;;9.82;3.72;;;13.20;99.90;;;;;;5070248;28;20028;-62
2022/07/16 03:44:39;;;;;;;5.30;3.05;;;13.30;99.90;;;;;;5070642;28;20021;-61
2022/07/16 03:47:05;;;;;;;10.73;3.50;;;13.30;99.90;;;;;;5086143;28;20024;-61
2022/07/16 03:49:30;;;;;;;5.60;3.35;;;13.30;99.90;;;;;;5069932;28;20028;-62
2022/07/16 03:51:56;;;;;;;7.28;3.25;;;13.30;99.90;;;;;;5069999;28;20060;-61
2022/07/16 03:54:21;;;;;;;9.73;3.20;;;13.30;99.90;;;;;;5070538;28;20025;-62
2022/07/16 03:56:47;;;;;;;6.13;3.25;;;13.30;99.90;;;;;;5070809;28;20028;-62
2022/07/16 03:59:12;;;;;;;8.93;3.70;;;13.30;99.90;;;;;;5070266;28;20039;-62
2022/07/16 04:01:38;;;;;;;5.43;3.35;;;13.30;99.90;;;;;;5070149;28;20032;-62
2022/07/16 04:04:04;;;;;;;7.32;3.53;;;13.40;99.90;;;;;;5070090;28;20020;-62
2022/07/16 04:06:29;;;;;;;7.78;3.35;;;13.40;99.90;;;;;;5069976;28;20021;-62
2022/07/16 04:08:55;;;;;;;6.55;3.58;;;13.40;99.90;;;;;;5070150;28;20437;-62
2022/07/16 04:11:20;;;;;;;10.32;3.78;;;13.50;99.90;;;;;;5070224;28;20406;-61
2022/07/16 04:13:46;;;;;;;7.60;3.17;;;13.40;99.90;;;;;;5070400;28;20024;-62
2022/07/16 04:16:12;;;;;;;7.93;3.47;;;13.50;99.90;;;;;;5070374;28;20372;-61
2022/07/16 04:18:37;;;;;;;8.95;3.35;;;13.60;99.90;;;;;;5069869;28;20422;-62
2022/07/16 04:21:04;;;;;;;8.48;4.18;;;13.60;99.90;;;;;;5070176;28;20150;-62
2022/07/16 04:23:30;;;;;;;6.75;3.45;;;13.70;99.90;;;;;;5070472;28;20032;-61
2022/07/16 04:25:56;;;;;;;10.80;3.85;;;13.70;99.90;;;;;;5070318;28;20025;-60
2022/07/16 04:28:21;;;;;;;10.27;3.83;;;13.80;99.90;;;;;;5070329;28;20435;-60
2022/07/16 04:30:47;;;;;;;8.98;3.83;;;13.80;99.90;;;;;;5069740;28;20326;-59
2022/07/16 04:33:13;;;;;;;5.30;3.05;;;13.90;99.90;;;;;;5069375;28;20071;-61
2022/07/16 04:35:38;;;;;;;9.05;3.78;;;13.90;99.90;;;;;;5070055;28;20039;-60
2022/07/16 04:38:04;;;;;;;10.98;3.40;;;14.00;99.90;;;;;;5070002;28;20043;-60
2022/07/16 04:40:29;;;;;;;8.27;3.08;;;14.10;99.90;;;;;;5069912;28;20048;-61
2022/07/16 04:42:55;;;;;;;8.52;3.58;;;14.10;99.90;;;;;;5069651;28;20025;-60
2022/07/16 04:45:21;;;;;;;10.00;3.85;;;14.10;99.90;;;;;;5069529;28;20024;-60
2022/07/16 04:47:59;;;;;;;13.82;4.25;;;14.30;99.90;;;;;;5069318;28;20033;-61
2022/07/16 04:50:24;;;;;;;5.93;3.83;;;14.30;99.90;;;;;;5069911;28;20121;-61
2022/07/16 04:52:50;;;;;;;6.40;3.83;;;14.30;99.90;;;;;;5069176;28;20123;-63
2022/07/16 04:55:15;;;;;;;6.05;3.90;;;14.40;99.90;;;;;;5070002;28;20039;-61
2022/07/16 04:57:41;;;;;;;9.15;3.60;;;14.50;99.90;;;;;;5069759;28;20107;-60
2022/07/16 05:00:07;;;;;;;8.32;3.85;;;14.60;99.90;;;;;;5069585;28;20028;-60
2022/07/16 05:05:20;;;;;;;7.82;4.03;;;14.70;99.90;;;;;;5069772;28;20036;-60
2022/07/16 05:07:47;;;;;;;11.95;4.18;;;14.70;99.90;;;;;;5068905;28;20107;-60
2022/07/16 05:10:13;;;;;;;9.13;4.57;;;14.80;99.90;;;;;;5070108;28;20031;-60
2022/07/16 05:12:38;;;;;;;7.40;3.67;;;14.80;99.90;;;;;;5068859;28;20037;-60
2022/07/16 05:15:04;;;;;;;8.52;4.80;;;14.90;99.90;;;;;;5070093;28;20025;-60
2022/07/16 05:17:30;;;;;;;8.50;4.07;;;15.00;99.90;;;;;;5069775;28;20052;-59
2022/07/16 05:19:55;;;;;;;7.82;3.65;;;15.00;99.90;;;;;;5069433;28;20043;-60
2022/07/16 05:22:21;;;;;;;12.70;3.88;;;15.10;99.90;;;;;;5071932;28;20158;-61
2022/07/16 05:24:46;;;;;;;12.25;3.92;;;15.10;99.90;;;;;;5072905;28;20025;-60
2022/07/16 05:27:12;;;;;;;9.60;3.55;;;15.20;99.90;;;;;;5073085;28;20021;-60
2022/07/16 05:29:37;;;;;;;6.85;3.72;;;15.20;99.90;;;;;;5073377;28;20062;-61
2022/07/16 05:32:04;;;;;;;10.48;4.10;;;15.30;99.90;;;;;;5069581;28;20047;-60
2022/07/16 05:34:29;;;;;;;7.18;3.60;;;15.40;99.90;;;;;;5073078;28;20032;-61
2022/07/16 05:36:55;;;;;;;7.43;3.83;;;15.40;99.90;;;;;;5072579;28;20127;-61
2022/07/16 05:39:20;;;;;;;8.85;4.30;;;15.50;99.90;;;;;;5072816;28;20529;-61
2022/07/16 05:41:46;;;;;;;8.98;3.67;;;15.50;99.90;;;;;;5072592;28;20025;-61
2022/07/16 05:44:11;;;;;;;13.50;3.90;;;15.60;99.90;;;;;;5073024;28;20029;-60
2022/07/16 05:46:37;;;;;;;5.47;3.58;;;15.70;99.90;;;;;;5072871;28;20035;-60
2022/07/16 05:49:02;;;;;;;8.52;4.20;;;15.70;99.90;;;;;;5072732;28;20032;-58
2022/07/16 05:51:28;;;;;;;11.70;4.53;;;15.80;99.90;;;;;;5072356;28;20037;-59
2022/07/16 05:53:53;;;;;;;8.90;3.58;;;15.90;99.90;;;;;;5072246;28;20031;-59
2022/07/16 05:56:19;;;;;;;6.75;3.67;;;15.90;99.90;;;;;;5072482;28;20387;-59
2022/07/16 05:58:44;;;;;;;8.07;4.13;;;16.00;99.90;;;;;;5073013;28;20048;-61
2022/07/16 06:01:10;;;;;;;7.55;3.70;;;16.20;99.90;;;;;;5072823;28;20017;-58
2022/07/16 06:03:40;;;;;;;11.80;4.22;;;16.20;99.90;;;;;;5072343;28;20029;-60
2022/07/16 06:06:05;;;;;;;7.00;3.47;;;16.30;99.90;;;;;;5072228;28;20036;-60
2022/07/16 06:08:31;;;;;;;5.38;2.85;;;16.40;99.90;;;;;;5072306;28;20024;-60
2022/07/16 06:10:58;;;;;;;7.85;3.25;;;16.50;99.90;;;;;;5072683;28;20435;-61
2022/07/16 06:13:24;;;;;;;8.75;3.88;;;16.50;99.90;;;;;;5072165;28;20039;-61
2022/07/16 06:15:49;;;;;;;5.25;3.28;;;16.60;99.90;;;;;;5072394;28;20067;-59
2022/07/16 06:18:15;;;;;;;11.10;2.72;;;16.70;99.90;;;;;;5072396;28;20036;-60
2022/07/16 06:20:40;;;;;;;4.50;2.38;;;16.80;99.90;;;;;;5071779;28;20032;-61
2022/07/16 06:23:06;;;;;;;3.45;2.25;;;16.80;99.90;;;;;;5071540;28;20402;-60
2022/07/16 06:25:32;;;;;;;5.30;2.25;;;16.90;99.90;;;;;;5071791;28;20021;-60
2022/07/16 06:27:58;;;;;;;8.02;2.35;;;16.90;99.90;;;;;;5072223;28;20028;-61
2022/07/16 06:30:23;;;;;;;4.85;2.10;;;17.10;99.90;;;;;;5071945;28;20025;-60
2022/07/16 06:32:49;;;;;;;8.02;2.20;;;17.10;99.90;;;;;;5070797;28;20039;-59
2022/07/16 06:35:16;;;;;;;4.55;2.28;;;17.20;99.90;;;;;;5071943;28;20029;-60
2022/07/16 06:37:42;;;;;;;9.00;2.17;;;17.20;99.90;;;;;;5071757;28;20032;-59
2022/07/16 06:40:08;;;;;;;9.18;2.30;;;17.20;99.90;;;;;;5071207;28;20029;-60
2022/07/16 06:42:34;;;;;;;5.30;2.58;;;17.30;99.90;;;;;;5071745;28;20036;-61
2022/07/16 06:45:00;;;;;;;8.68;2.20;;;17.30;99.90;;;;;;5071830;28;20028;-59
2022/07/16 06:47:26;;;;;;;10.90;2.35;;;17.30;99.90;;;;;;5071413;28;20036;-61
2022/07/16 06:49:52;;;;;;;5.80;2.17;;;17.40;99.90;;;;;;5071485;28;20032;-60
2022/07/16 06:52:18;;;;;;;7.95;2.00;;;17.40;99.90;;;;;;5071373;28;20089;-59
2022/07/16 06:54:43;;;;;;;10.48;2.22;;;17.50;99.90;;;;;;5071177;28;20104;-61
2022/07/16 06:57:09;;;;;;;6.20;2.47;;;17.60;99.90;;;;;;5070945;28;20097;-61
2022/07/16 06:59:34;;;;;;;4.05;1.95;;;17.60;99.90;;;;;;5071304;28;20145;-61
2022/07/16 07:02:00;;;;;;;11.70;2.80;;;17.70;99.90;;;;;;5071178;28;20070;-61
2022/07/16 07:04:25;;;;;;;9.23;2.80;;;17.80;99.90;;;;;;5071515;28;20157;-61
2022/07/16 07:06:51;;;;;;;15.07;2.78;;;17.90;99.90;;;;;;5071342;28;20391;-60
2022/07/16 07:09:17;;;;;;;5.78;2.55;;;18.00;99.90;;;;;;5070915;28;20029;-60
2022/07/16 07:11:42;;;;;;;9.02;2.95;;;18.00;99.90;;;;;;5071137;28;20028;-59
2022/07/16 07:14:09;;;;;;;6.07;2.63;;;18.10;99.90;;;;;;5070820;28;20025;-60
2022/07/16 07:16:34;;;;;;;10.90;3.00;;;18.30;99.90;;;;;;5071478;28;20390;-60
2022/07/16 07:19:00;;;;;;;5.22;2.95;;;18.40;99.90;;;;;;5071061;28;20036;-62
2022/07/16 07:21:26;;;;;;;8.55;4.03;;;18.50;99.90;;;;;;5070736;28;20036;-60
2022/07/16 07:23:52;;;;;;;7.03;3.22;;;18.50;99.90;;;;;;5070676;28;20031;-60
2022/07/16 07:26:17;;;;;;;7.93;3.65;;;18.50;99.90;;;;;;5070923;28;20048;-60
2022/07/16 07:28:43;;;;;;;11.02;4.00;;;18.50;99.90;;;;;;5070731;28;20048;-60
2022/07/16 07:31:09;;;;;;;7.93;3.97;;;18.60;99.90;;;;;;5070760;28;20048;-60
2022/07/16 07:33:36;;;;;;;14.98;5.07;;;18.70;99.90;;;;;;5065506;28;20501;-60
2022/07/16 07:36:02;;;;;;;16.42;4.55;;;18.70;99.90;;;;;;5055446;28;20024;-61
2022/07/16 07:38:27;;;;;;;13.65;4.78;;;18.60;99.90;;;;;;5070443;28;20487;-61
2022/07/16 07:40:53;;;;;;;8.10;4.15;;;18.60;99.90;;;;;;5070319;28;20024;-61
2022/07/16 07:43:18;;;;;;;9.70;5.07;;;18.60;99.90;;;;;;5069942;28;20031;-60
2022/07/16 07:45:44;;;;;;;11.50;5.20;;;18.60;99.90;;;;;;5069428;28;20028;-61
2022/07/16 07:48:10;;;;;;;10.93;4.82;;;18.60;99.90;;;;;;5069605;28;20119;-61
2022/07/16 07:50:35;;;;;;;11.73;5.40;;;18.60;99.90;;;;;;5070264;28;20105;-61
2022/07/16 07:53:01;;;;;;;11.10;5.28;;;18.70;99.90;;;;;;5069745;28;20033;-61
2022/07/16 07:55:26;;;;;;;12.95;5.10;;;18.80;99.90;;;;;;5069276;28;20029;-61
2022/07/16 07:57:52;;;;;;;9.10;5.80;;;18.90;99.90;;;;;;5070104;28;20511;-58
2022/07/16 08:00:19;;;;;;;8.68;5.15;;;19.00;99.90;;;;;;5069216;28;20044;-61
2022/07/16 08:02:45;;;;;;;9.73;4.70;;;19.10;99.90;;;;;;5069122;28;20039;-63
2022/07/16 08:05:11;;;;;;;13.10;4.95;;;19.20;99.90;;;;;;5069592;28;20024;-61
2022/07/16 08:07:37;;;;;;;11.75;5.75;;;19.40;99.90;;;;;;5069493;28;20039;-61
2022/07/16 08:10:03;;;;;;;6.70;4.45;;;19.40;99.90;;;;;;5069518;28;20042;-63
2022/07/16 08:12:29;;;;;;;10.90;5.50;;;19.50;99.90;;;;;;5069529;28;20463;-62
2022/07/16 08:14:54;;;;;;;8.65;5.72;;;19.40;99.90;;;;;;5069485;28;20104;-61
2022/07/16 08:17:20;;;;;;;15.60;5.28;;;19.30;99.90;;;;;;5068729;28;20453;-62
2022/07/16 08:19:45;;;;;;;12.70;5.38;;;19.30;99.90;;;;;;5069651;28;20071;-63
2022/07/16 08:22:11;;;;;;;12.20;5.70;;;19.50;99.90;;;;;;5069064;28;20568;-62
2022/07/16 08:27:21;;;;;;;8.65;4.97;;;19.50;99.90;;;;;;5069688;28;20445;-63
2022/07/16 08:29:46;;;;;;;12.90;4.63;;;19.60;99.90;;;;;;5069360;28;20056;-61
2022/07/16 08:32:12;;;;;;;12.52;4.78;;;19.50;99.90;;;;;;5068278;28;20059;-62
2022/07/16 08:34:37;;;;;;;10.07;4.95;;;19.50;99.90;;;;;;5069665;28;20433;-62
2022/07/16 08:37:07;;;;;;;6.13;4.55;;;19.60;99.90;;;;;;5068901;28;20070;-60
2022/07/16 08:39:32;;;;;;;12.63;5.32;;;19.70;99.90;;;;;;5069081;28;20093;-60
2022/07/16 08:41:59;;;;;;;7.00;4.60;;;19.80;99.90;;;;;;5069073;28;20040;-60
2022/07/16 08:44:26;;;;;;;5.65;4.80;;;19.90;99.90;;;;;;5069042;28;20027;-61
2022/07/16 08:46:52;;;;;;;9.98;4.97;;;20.10;99.90;;;;;;5069161;28;20025;-61
2022/07/16 08:49:19;;;;;;;8.45;4.57;;;20.20;99.90;;;;;;5069202;28;20037;-60
2022/07/16 08:51:45;;;;;;;6.60;4.68;;;20.20;99.90;;;;;;5069005;28;20021;-61
2022/07/16 08:54:19;;;;;;;9.25;4.63;;;20.30;99.90;;;;;;5068216;28;20037;-62
2022/07/16 08:56:45;;;;;;;8.43;4.25;;;20.30;99.90;;;;;;5070996;28;20036;-62
2022/07/16 08:59:13;;;;;;;5.32;3.42;;;20.40;99.90;;;;;;5073033;28;20075;-61
2022/07/16 09:01:38;;;;;;;7.45;4.03;;;20.50;99.90;;;;;;5072240;28;20104;-60
2022/07/16 09:04:04;;;;;;;4.57;3.85;;;20.50;99.90;;;;;;5073147;28;20149;-61
2022/07/16 09:06:30;;;;;;;8.25;3.63;;;20.50;99.90;;;;;;5072934;28;20359;-61
2022/07/16 09:08:56;;;;;;;9.38;3.85;;;20.40;99.90;;;;;;5072746;28;20048;-62
2022/07/16 09:11:40;;;;;;;13.63;3.60;;;20.40;99.90;;;;;;5073002;28;20028;-61
2022/07/16 09:14:18;;;;;;;11.37;3.73;;;20.30;99.90;;;;;;5072606;28;20509;-61
2022/07/16 09:16:43;;;;;;;5.70;3.33;;;20.20;99.90;;;;;;5087970;28;20033;-61
2022/07/16 09:19:12;;;;;;;9.57;3.50;;;20.20;99.90;;;;;;5072620;28;20077;-61
2022/07/16 09:21:58;;;;;;;5.70;3.50;;;20.20;99.90;;;;;;5072400;28;20368;-61
2022/07/16 09:24:43;;;;;;;4.50;2.88;;;20.30;99.90;;;;;;5052818;28;20428;-61
2022/07/16 09:27:11;;;;;;;8.25;2.33;;;20.40;99.90;;;;;;5052787;28;20029;-61
2022/07/16 09:29:47;;;;;;;8.02;3.33;;;20.30;99.90;;;;;;5052508;28;20033;-61
2022/07/16 09:32:26;;;;;;;5.90;4.00;;;20.20;99.90;;;;;;5069755;28;20024;-61
2022/07/16 09:35:13;;;;;;;5.82;3.25;;;20.20;99.90;;;;;;5072332;28;20016;-61
2022/07/16 09:37:55;;;;;;;5.28;2.85;;;20.10;99.90;;;;;;5072112;28;20032;-61
2022/07/16 09:40:37;;;;;;;7.93;2.88;;;20.20;99.90;;;;;;5072245;28;20032;-61
2022/07/16 09:43:15;;;;;;;5.47;3.65;;;20.40;99.90;;;;;;5072027;28;20029;-61
2022/07/16 09:45:45;;;;;;;4.82;2.95;;;20.50;99.90;;;;;;5072280;28;20066;-62
2022/07/16 09:48:28;;;;;;;5.20;2.80;;;20.60;99.90;;;;;;5071998;28;20028;-61
2022/07/16 09:50:56;;;;;;;4.78;2.88;;;20.80;99.90;;;;;;5071974;28;20109;-61
2022/07/16 09:53:25;;;;;;;4.55;2.35;;;20.90;99.90;;;;;;5072266;28;20024;-60
2022/07/16 09:56:03;;;;;;;9.05;2.47;;;21.00;99.90;;;;;;5072491;28;20028;-60
2022/07/16 09:58:30;;;;;;;4.18;2.13;;;21.00;99.90;;;;;;5072143;28;20147;-62
2022/07/16 10:00:57;;;;;;;2.63;1.80;;;21.00;99.90;;;;;;5070795;28;20024;-62
2022/07/16 10:03:23;;;;;;;3.35;1.65;;;21.00;99.90;;;;;;5071089;28;20492;-61
2022/07/16 10:05:48;;;;;;;2.88;1.38;;;21.00;99.90;;;;;;5071462;28;20032;-60
2022/07/16 10:08:15;;;;;;;1.75;1.55;;;21.30;99.90;;;;;;5071182;28;20498;-61
2022/07/16 10:10:41;;;;;;;4.45;1.50;;;21.70;99.90;;;;;;5072049;28;20375;-62
2022/07/16 10:13:08;;;;;;;1.95;1.38;;;21.90;99.90;;;;;;5071102;28;20036;-63
2022/07/16 10:15:34;;;;;;;5.15;1.48;;;21.70;99.90;;;;;;5071845;28;20020;-62
2022/07/16 10:17:59;;;;;;;1.73;1.40;;;21.70;99.90;;;;;;5071586;28;20028;-62
2022/07/16 10:20:25;;;;;;;2.30;1.10;;;21.60;99.90;;;;;;5071266;28;20040;-61
2022/07/16 10:22:52;;;;;;;3.30;1.20;;;21.80;99.90;;;;;;5071387;28;20371;-61
2022/07/16 10:25:20;;;;;;;1.38;0.85;;;22.00;99.90;;;;;;5071681;28;20134;-59
2022/07/16 10:27:46;;;;;;;1.58;1.17;;;21.90;99.90;;;;;;5071932;28;20052;-61
2022/07/16 10:30:21;;;;;;;1.88;1.02;;;21.80;99.90;;;;;;5071256;28;20047;-60
2022/07/16 10:33:14;;;;;;;2.53;1.10;;;22.00;99.90;;;;;;5070888;28;20036;-61
2022/07/16 10:35:44;;;;;;;3.65;0.65;;;21.90;99.90;;;;;;5071374;28;20103;-62
2022/07/16 10:38:13;;;;;;;1.98;0.80;;;21.90;99.90;;;;;;5071366;28;20343;-60
2022/07/16 10:40:41;;;;;;;1.08;0.98;;;22.30;99.90;;;;;;5071652;28;20033;-61
2022/07/16 10:43:15;;;;;;;2.42;0.80;;;22.50;99.90;;;;;;5070915;28;20499;-62
2022/07/16 10:45:54;;;;;;;5.97;0.98;;;22.30;99.90;;;;;;5071121;28;20028;-61
2022/07/16 10:48:30;;;;;;;1.42;0.90;;;22.00;99.90;;;;;;5094256;22;20115;-59
2022/07/16 10:51:17;;;;;;;1.77;0.90;;;21.90;99.90;;;;;;5071989;28;20036;-57
2022/07/16 10:53:57;;;;;;;4.80;1.20;;;22.10;99.90;;;;;;5070905;28;20024;-59
2022/07/16 10:56:40;;;;;;;2.97;1.05;;;22.20;99.90;;;;;;5069658;28;20028;-56
2022/07/16 10:59:11;;;;;;;2.17;1.10;;;22.80;99.90;;;;;;5071279;28;20059;-58
2022/07/16 11:01:38;;;;;;;2.88;0.90;;;23.30;99.90;;;;;;5070295;28;20463;-57
2022/07/16 11:04:05;;;;;;;2.05;1.15;;;23.50;99.90;;;;;;5071256;28;20101;-57
2022/07/16 11:06:30;;;;;;;1.73;0.93;;;23.20;99.90;;;;;;5071193;28;20039;-58
2022/07/16 11:08:58;;;;;;;2.17;1.45;;;22.80;99.90;;;;;;5070784;28;20051;-59
2022/07/16 11:11:30;;;;;;;8.20;0.90;;;22.80;99.90;;;;;;5070552;28;20032;-57
2022/07/16 11:13:56;;;;;;;1.30;0.95;;;23.00;99.90;;;;;;5086686;28;20082;-57
2022/07/16 11:16:22;;;;;;;1.83;1.27;;;23.60;99.90;;;;;;5070872;28;20395;-58
2022/07/16 11:18:47;;;;;;;1.60;1.05;;;23.80;99.90;;;;;;5070366;28;20096;-57
2022/07/16 11:21:13;;;;;;;1.23;1.00;;;23.50;99.90;;;;;;5070562;28;20081;-61
2022/07/16 11:23:55;;;;;;;3.05;0.80;;;23.10;99.90;;;;;;5067643;28;20421;-58
2022/07/16 11:26:22;;;;;;;1.52;0.90;;;23.00;99.90;;;;;;5070808;28;20040;-59
2022/07/16 11:28:51;;;;;;;1.88;1.10;;;23.10;99.90;;;;;;5070308;28;20017;-58
2022/07/16 11:31:24;;;;;;;1.55;0.88;;;23.30;99.90;;;;;;5070485;28;20024;-57
2022/07/16 11:33:51;;;;;;;2.40;0.80;;;23.60;99.90;;;;;;5070762;28;20024;-61
2022/07/16 11:36:17;;;;;;;2.65;0.90;;;23.40;99.90;;;;;;5069984;28;20129;-60
2022/07/16 11:38:43;;;;;;;2.95;0.90;;;23.20;99.90;;;;;;5069814;28;20509;-58
2022/07/16 11:41:08;;;;;;;0.90;0.75;;;23.20;99.90;;;;;;5070203;28;20528;-59
2022/07/16 11:43:34;;;;;;;1.00;0.80;;;23.20;99.90;;;;;;5070052;28;20099;-60
2022/07/16 11:46:00;;;;;;;3.53;0.98;;;23.30;99.90;;;;;;5070188;28;20025;-59
2022/07/16 11:48:37;;;;;;;6.28;1.08;;;23.10;99.90;;;;;;5070335;28;20029;-60
2022/07/16 11:51:08;;;;;;;8.18;1.30;;;23.00;99.90;;;;;;5070249;28;20394;-59
2022/07/16 11:53:37;;;;;;;1.30;0.82;;;22.80;99.90;;;;;;5069948;28;20028;-58
2022/07/16 11:56:04;;;;;;;2.90;1.02;;;22.80;99.90;;;;;;5069914;28;20021;-58
2022/07/16 11:58:29;;;;;;;1.42;1.00;;;23.20;99.90;;;;;;5069834;28;20059;-59
2022/07/16 12:00:55;;;;;;;1.52;0.90;;;23.70;99.90;;;;;;5069911;28;20435;-57
2022/07/16 12:03:21;;;;;;;1.25;0.90;;;24.00;99.90;;;;;;5069665;28;20090;-59
2022/07/16 12:05:47;;;;;;;2.38;1.02;;;24.10;99.90;;;;;;5069511;28;20029;-59
2022/07/16 12:08:14;;;;;;;1.40;0.90;;;23.90;99.90;;;;;;5069344;28;20036;-57
2022/07/16 12:10:39;;;;;;;0.98;0.77;;;24.00;99.90;;;;;;5069869;28;20031;-60
2022/07/16 12:13:08;;;;;;;2.40;0.90;;;23.90;99.90;;;;;;5069751;28;20028;-60
2022/07/16 12:15:57;;;;;;;1.35;0.90;;;23.50;99.90;;;;;;5069383;28;20020;-59
2022/07/16 12:18:23;;;;;;;3.63;0.85;;;23.40;99.90;;;;;;5069934;28;20029;-58
2022/07/16 12:20:50;;;;;;;2.13;0.73;;;23.60;99.90;;;;;;5069536;28;20024;-59
2022/07/16 12:23:34;;;;;;;5.85;0.98;;;23.50;99.90;;;;;;5069570;28;20043;-59
2022/07/16 12:26:01;;;;;;;1.33;1.00;;;23.80;99.90;;;;;;5069859;28;20020;-59
2022/07/16 12:28:27;;;;;;;7.30;0.90;;;24.00;99.90;;;;;;5069128;28;20046;-59
2022/07/16 12:30:54;;;;;;;2.15;0.90;;;23.90;99.90;;;;;;5069530;28;20104;-59
2022/07/16 12:33:22;;;;;;;2.20;1.27;;;23.90;99.90;;;;;;5069594;28;20506;-59
2022/07/16 12:35:57;;;;;;;2.28;0.90;;;24.20;99.90;;;;;;5069459;28;20103;-60
2022/07/16 12:38:46;;;;;;;5.05;1.23;;;24.60;99.90;;;;;;5069509;28;20032;-58
2022/07/16 12:41:15;;;;;;;2.17;1.17;;;24.80;99.90;;;;;;5069743;28;20155;-59
2022/07/16 12:43:42;;;;;;;5.57;1.10;;;24.90;99.90;;;;;;5069302;28;20494;-59
2022/07/16 12:46:10;;;;;;;2.63;1.05;;;24.80;99.90;;;;;;5069521;28;20114;-59
2022/07/16 12:48:48;;;;;;;1.92;1.05;;;24.70;99.90;;;;;;5069009;28;20016;-60
2022/07/16 12:51:18;;;;;;;2.20;1.10;;;24.60;99.90;;;;;;5069249;28;20060;-59
2022/07/16 12:53:43;;;;;;;2.03;1.10;;;24.00;99.90;;;;;;5068371;28;20050;-60